Impacts METAR Board INFO
IDs:

KCLT - Charlotte/Douglas In, NC, US

Updated at: 1436 UTC 22 Nov 2017
Potential Impact None Slight Moderate High
Time22/02Z 22/03Z 22/04Z 22/05Z 22/06Z 22/07Z 22/08Z 22/09Z 22/10Z 22/11Z 22/12Z 22/13Z 22/14Z
VIS10 10 10 3 8 6 2 0.25 0.25 0.25 6 10 10
CIG90 40 26 20 12 10 28 1 1 1 -- -- --
CoverOVCOVCOVCOVCOVCOVCBKNOVXOVXOVXSCTFEWFEW
FltCatVFRVFRMVFRMVFRMVFRMVFRIFRLIFRLIFRLIFRVFRVFRVFR
WX-----RA-RA BR-RABRBRFGFGBRBR----
WDir3603305003403400003203300340
WSpd6 4 4 0 5 4 0 0 0 5 5 0 5
WGst-- -- -- -- -- -- -- -- -- -- -- -- --
Raw hourly METARs
KCLT 220152Z 36006KT 10SM SCT055 BKN090 OVC120 12/10 A3006 RMK AO2 RAE0058 SLP176 P0000 T01220100
KCLT 220252Z 33004KT 10SM BKN040 OVC050 12/11 A3005 RMK AO2 SLP174 60000 T01220106 58007
KCLT 220352Z 05004KT 10SM -RA BKN026 BKN037 OVC047 12/11 A3003 RMK AO2 RAB50 SLP167 P0000 T01220106
KCLT 220452Z 00000KT 3SM -RA BR FEW010 BKN020 OVC026 12/12 A3004 RMK AO2 SLP168 P0015 T01170117 401610022
KCLT 220552Z 34005KT 8SM -RA FEW005 OVC012 12/12 A3001 RMK AO2 SLP161 P0006 60021 T01170117 10156 20117 58012
KCLT 220659Z 34004KT 6SM BR FEW002 BKN010 OVC029 12/12 A2999 RMK AO2 T01170117
KCLT 220752Z 00000KT 2SM R18C/0700V1000FT BR SCT001 BKN028 10/10 A2998 RMK AO2 SLP149 T01000100
KCLT 220852Z 00000KT 1/4SM R18C/1000V1200FT FG VV001 09/09 A2999 RMK AO2 SLP153 60000 T00940094 55008
KCLT 220952Z 00000KT 1/4SM R18C/1400V1800FT FG VV001 08/07 A2998 RMK AO2 SFC VIS 1/2 SLP149 T00780072
KCLT 221052Z 32005KT 1/4SM R18C/1800V2000FT BR VV001 09/09 A2997 RMK AO2 SFC VIS 3/4 SLP146 T00890089
KCLT 221152Z 33005KT 6SM BR FEW008 SCT250 08/08 A2998 RMK AO2 SLP151 60000 70021 T00780078 10117 20067 55002
KCLT 221252Z 00000KT 10SM FEW250 08/08 A3001 RMK AO2 SLP160 T00830083
KCLT 221352Z 34005KT 10SM FEW250 11/09 A3003 RMK AO2 SLP166 T01110094